sensor_id;sensor_type;location;lat;lon;timestamp;temperature;humidity
64858;SHT30;51335;51.148;6.950;2022-08-01T00:00:14;19.83;93.99
64858;SHT30;51335;51.148;6.950;2022-08-01T00:00:45;19.84;93.97
64858;SHT30;51335;51.148;6.950;2022-08-01T00:01:15;19.87;93.87
64858;SHT30;51335;51.148;6.950;2022-08-01T00:01:45;19.83;93.81
64858;SHT30;51335;51.148;6.950;2022-08-01T00:02:16;19.80;93.64
64858;SHT30;51335;51.148;6.950;2022-08-01T00:02:46;19.77;93.42
64858;SHT30;51335;51.148;6.950;2022-08-01T00:03:16;19.79;93.68
64858;SHT30;51335;51.148;6.950;2022-08-01T00:03:47;19.76;93.91
64858;SHT30;51335;51.148;6.950;2022-08-01T00:04:17;19.73;93.92
64858;SHT30;51335;51.148;6.950;2022-08-01T00:04:47;19.71;93.82
64858;SHT30;51335;51.148;6.950;2022-08-01T00:05:17;19.71;94.03
64858;SHT30;51335;51.148;6.950;2022-08-01T00:05:48;19.71;94.26
64858;SHT30;51335;51.148;6.950;2022-08-01T00:06:18;19.74;94.26
64858;SHT30;51335;51.148;6.950;2022-08-01T00:06:48;19.70;94.30
64858;SHT30;51335;51.148;6.950;2022-08-01T00:07:19;19.70;94.38
64858;SHT30;51335;51.148;6.950;2022-08-01T00:07:49;19.71;94.28
64858;SHT30;51335;51.148;6.950;2022-08-01T00:08:19;19.71;94.31
64858;SHT30;51335;51.148;6.950;2022-08-01T00:08:49;19.73;94.30
64858;SHT30;51335;51.148;6.950;2022-08-01T00:09:20;19.71;94.29
64858;SHT30;51335;51.148;6.950;2022-08-01T00:09:50;19.73;94.43
64858;SHT30;51335;51.148;6.950;2022-08-01T00:10:20;19.69;94.21
64858;SHT30;51335;51.148;6.950;2022-08-01T00:10:51;19.71;94.40
64858;SHT30;51335;51.148;6.950;2022-08-01T00:11:21;19.73;94.21
64858;SHT30;51335;51.148;6.950;2022-08-01T00:11:51;19.76;94.23
64858;SHT30;51335;51.148;6.950;2022-08-01T00:12:21;19.76;94.21
64858;SHT30;51335;51.148;6.950;2022-08-01T00:12:52;19.76;94.09
64858;SHT30;51335;51.148;6.950;2022-08-01T00:13:22;19.77;94.05
64858;SHT30;51335;51.148;6.950;2022-08-01T00:13:52;19.76;94.18
64858;SHT30;51335;51.148;6.950;2022-08-01T00:14:23;19.74;94.21
64858;SHT30;51335;51.148;6.950;2022-08-01T00:14:53;19.77;93.81
64858;SHT30;51335;51.148;6.950;2022-08-01T00:15:23;19.77;93.89
64858;SHT30;51335;51.148;6.950;2022-08-01T00:15:53;19.80;93.69
64858;SHT30;51335;51.148;6.950;2022-08-01T00:16:24;19.77;93.83
64858;SHT30;51335;51.148;6.950;2022-08-01T00:16:54;19.79;93.90
64858;SHT30;51335;51.148;6.950;2022-08-01T00:17:24;19.74;93.85
64858;SHT30;51335;51.148;6.950;2022-08-01T00:17:55;19.76;94.02
64858;SHT30;51335;51.148;6.950;2022-08-01T00:18:25;19.73;94.02
64858;SHT30;51335;51.148;6.950;2022-08-01T00:18:55;19.73;93.83
64858;SHT30;51335;51.148;6.950;2022-08-01T00:19:25;19.74;93.84
64858;SHT30;51335;51.148;6.950;2022-08-01T00:19:56;19.74;93.84
64858;SHT30;51335;51.148;6.950;2022-08-01T00:20:26;19.73;93.79
64858;SHT30;51335;51.148;6.950;2022-08-01T00:20:57;19.67;93.39
64858;SHT30;51335;51.148;6.950;2022-08-01T00:21:27;19.67;93.43
64858;SHT30;51335;51.148;6.950;2022-08-01T00:21:57;19.70;93.49
64858;SHT30;51335;51.148;6.950;2022-08-01T00:22:28;19.71;93.37
64858;SHT30;51335;51.148;6.950;2022-08-01T00:22:58;19.73;93.59
64858;SHT30;51335;51.148;6.950;2022-08-01T00:23:28;19.70;93.56
64858;SHT30;51335;51.148;6.950;2022-08-01T00:23:59;19.69;93.69
64858;SHT30;51335;51.148;6.950;2022-08-01T00:24:29;19.70;93.57
64858;SHT30;51335;51.148;6.950;2022-08-01T00:25:00;19.70;93.43
64858;SHT30;51335;51.148;6.950;2022-08-01T00:25:30;19.70;93.63
64858;SHT30;51335;51.148;6.950;2022-08-01T00:26:00;19.70;93.52
64858;SHT30;51335;51.148;6.950;2022-08-01T00:26:31;19.70;93.54
64858;SHT30;51335;51.148;6.950;2022-08-01T00:27:01;19.71;93.49
64858;SHT30;51335;51.148;6.950;2022-08-01T00:27:32;19.69;93.62
64858;SHT30;51335;51.148;6.950;2022-08-01T00:28:02;19.69;93.63
64858;SHT30;51335;51.148;6.950;2022-08-01T00:28:33;19.69;93.28
64858;SHT30;51335;51.148;6.950;2022-08-01T00:29:03;19.71;93.30
64858;SHT30;51335;51.148;6.950;2022-08-01T00:29:33;19.73;93.22
64858;SHT30;51335;51.148;6.950;2022-08-01T00:30:04;19.76;93.19
64858;SHT30;51335;51.148;6.950;2022-08-01T00:30:35;19.74;93.06
64858;SHT30;51335;51.148;6.950;2022-08-01T00:31:06;19.79;93.14
64858;SHT30;51335;51.148;6.950;2022-08-01T00:31:37;19.74;93.15
64858;SHT30;51335;51.148;6.950;2022-08-01T00:32:07;19.74;92.93
64858;SHT30;51335;51.148;6.950;2022-08-01T00:32:38;19.81;92.47
64858;SHT30;51335;51.148;6.950;2022-08-01T00:33:08;19.79;92.48
64858;SHT30;51335;51.148;6.950;2022-08-01T00:33:38;19.77;92.69
64858;SHT30;51335;51.148;6.950;2022-08-01T00:34:09;19.76;93.25
64858;SHT30;51335;51.148;6.950;2022-08-01T00:34:39;19.79;93.10
64858;SHT30;51335;51.148;6.950;2022-08-01T00:35:10;19.74;93.06
64858;SHT30;51335;51.148;6.950;2022-08-01T00:35:40;19.76;93.06
64858;SHT30;51335;51.148;6.950;2022-08-01T00:36:10;19.76;92.98
64858;SHT30;51335;51.148;6.950;2022-08-01T00:36:40;19.76;92.49
64858;SHT30;51335;51.148;6.950;2022-08-01T00:37:11;19.71;92.87
64858;SHT30;51335;51.148;6.950;2022-08-01T00:37:41;19.70;93.05
64858;SHT30;51335;51.148;6.950;2022-08-01T00:38:11;19.67;93.09
64858;SHT30;51335;51.148;6.950;2022-08-01T00:38:42;19.70;93.28
64858;SHT30;51335;51.148;6.950;2022-08-01T00:39:12;19.69;92.91
64858;SHT30;51335;51.148;6.950;2022-08-01T00:39:43;19.66;92.93
64858;SHT30;51335;51.148;6.950;2022-08-01T00:40:13;19.67;93.00
64858;SHT30;51335;51.148;6.950;2022-08-01T00:40:43;19.73;92.91
64858;SHT30;51335;51.148;6.950;2022-08-01T00:41:14;19.69;93.10
64858;SHT30;51335;51.148;6.950;2022-08-01T00:41:44;19.65;92.82
64858;SHT30;51335;51.148;6.950;2022-08-01T00:42:14;19.69;93.07
64858;SHT30;51335;51.148;6.950;2022-08-01T00:42:45;19.65;93.13
64858;SHT30;51335;51.148;6.950;2022-08-01T00:43:15;19.62;93.17
64858;SHT30;51335;51.148;6.950;2022-08-01T00:43:45;19.65;93.06
64858;SHT30;51335;51.148;6.950;2022-08-01T00:44:15;19.66;92.81
64858;SHT30;51335;51.148;6.950;2022-08-01T00:44:46;19.66;92.82
64858;SHT30;51335;51.148;6.950;2022-08-01T00:45:16;19.69;92.68
64858;SHT30;51335;51.148;6.950;2022-08-01T00:45:46;19.66;92.94
64858;SHT30;51335;51.148;6.950;2022-08-01T00:46:17;19.67;93.25
64858;SHT30;51335;51.148;6.950;2022-08-01T00:46:47;19.70;93.12
64858;SHT30;51335;51.148;6.950;2022-08-01T00:47:17;19.66;92.78
64858;SHT30;51335;51.148;6.950;2022-08-01T00:47:47;19.65;93.08
64858;SHT30;51335;51.148;6.950;2022-08-01T00:48:18;19.65;93.12
64858;SHT30;51335;51.148;6.950;2022-08-01T00:48:48;19.63;93.18
64858;SHT30;51335;51.148;6.950;2022-08-01T00:49:18;19.62;92.98
64858;SHT30;51335;51.148;6.950;2022-08-01T00:49:49;19.60;93.01
64858;SHT30;51335;51.148;6.950;2022-08-01T00:50:19;19.63;93.08
64858;SHT30;51335;51.148;6.950;2022-08-01T00:50:50;19.65;93.01
64858;SHT30;51335;51.148;6.950;2022-08-01T00:51:20;19.63;93.01
64858;SHT30;51335;51.148;6.950;2022-08-01T00:51:52;19.67;93.06
64858;SHT30;51335;51.148;6.950;2022-08-01T00:52:22;19.63;93.07
64858;SHT30;51335;51.148;6.950;2022-08-01T00:52:53;19.63;93.20
64858;SHT30;51335;51.148;6.950;2022-08-01T00:53:24;19.69;93.02
64858;SHT30;51335;51.148;6.950;2022-08-01T00:53:55;19.63;92.94
64858;SHT30;51335;51.148;6.950;2022-08-01T00:54:26;19.60;93.18
64858;SHT30;51335;51.148;6.950;2022-08-01T00:54:57;19.60;93.26
64858;SHT30;51335;51.148;6.950;2022-08-01T00:55:28;19.56;92.97
64858;SHT30;51335;51.148;6.950;2022-08-01T00:55:59;19.56;93.11
64858;SHT30;51335;51.148;6.950;2022-08-01T00:56:29;19.57;92.98
64858;SHT30;51335;51.148;6.950;2022-08-01T00:57:00;19.59;93.15
64858;SHT30;51335;51.148;6.950;2022-08-01T00:57:30;19.59;92.96
64858;SHT30;51335;51.148;6.950;2022-08-01T00:58:00;19.57;93.03
64858;SHT30;51335;51.148;6.950;2022-08-01T00:58:31;19.57;93.06
64858;SHT30;51335;51.148;6.950;2022-08-01T00:59:03;19.55;93.23
64858;SHT30;51335;51.148;6.950;2022-08-01T00:59:34;19.55;93.50
64858;SHT30;51335;51.148;6.950;2022-08-01T01:00:05;19.56;93.33
64858;SHT30;51335;51.148;6.950;2022-08-01T01:00:35;19.60;93.22
64858;SHT30;51335;51.148;6.950;2022-08-01T01:01:06;19.60;93.19
64858;SHT30;51335;51.148;6.950;2022-08-01T01:01:36;19.59;93.05
64858;SHT30;51335;51.148;6.950;2022-08-01T01:02:06;19.59;93.09
64858;SHT30;51335;51.148;6.950;2022-08-01T01:02:37;19.55;93.17
64858;SHT30;51335;51.148;6.950;2022-08-01T01:03:07;19.57;93.15
64858;SHT30;51335;51.148;6.950;2022-08-01T01:03:38;19.55;93.12
64858;SHT30;51335;51.148;6.950;2022-08-01T01:04:08;19.55;93.19
64858;SHT30;51335;51.148;6.950;2022-08-01T01:04:38;19.53;93.03
64858;SHT30;51335;51.148;6.950;2022-08-01T01:05:09;19.55;93.20
64858;SHT30;51335;51.148;6.950;2022-08-01T01:05:48;19.56;93.24
64858;SHT30;51335;51.148;6.950;2022-08-01T01:07:59;19.52;93.28
64858;SHT30;51335;51.148;6.950;2022-08-01T01:08:38;19.52;93.27
64858;SHT30;51335;51.148;6.950;2022-08-01T01:10:21;19.56;93.30
64858;SHT30;51335;51.148;6.950;2022-08-01T01:10:56;19.57;93.20
64858;SHT30;51335;51.148;6.950;2022-08-01T01:13:25;19.56;92.80
64858;SHT30;51335;51.148;6.950;2022-08-01T01:14:10;19.55;92.84
64858;SHT30;51335;51.148;6.950;2022-08-01T01:15:44;19.53;93.09
64858;SHT30;51335;51.148;6.950;2022-08-01T01:16:18;19.53;93.24
64858;SHT30;51335;51.148;6.950;2022-08-01T01:16:49;19.55;93.17
64858;SHT30;51335;51.148;6.950;2022-08-01T01:17:23;19.53;93.13
64858;SHT30;51335;51.148;6.950;2022-08-01T01:18:00;19.57;93.13
64858;SHT30;51335;51.148;6.950;2022-08-01T01:18:38;19.55;93.22
64858;SHT30;51335;51.148;6.950;2022-08-01T01:19:16;19.59;92.69
64858;SHT30;51335;51.148;6.950;2022-08-01T01:19:54;19.60;92.67
64858;SHT30;51335;51.148;6.950;2022-08-01T01:20:28;19.57;92.88
64858;SHT30;51335;51.148;6.950;2022-08-01T01:21:13;19.57;92.81
64858;SHT30;51335;51.148;6.950;2022-08-01T01:22:17;19.55;92.71
64858;SHT30;51335;51.148;6.950;2022-08-01T01:23:15;19.55;92.72
64858;SHT30;51335;51.148;6.950;2022-08-01T01:25:40;19.52;92.60
64858;SHT30;51335;51.148;6.950;2022-08-01T01:26:36;19.50;92.89
64858;SHT30;51335;51.148;6.950;2022-08-01T01:27:21;19.55;92.73
64858;SHT30;51335;51.148;6.950;2022-08-01T01:28:13;19.50;92.81
64858;SHT30;51335;51.148;6.950;2022-08-01T01:29:28;19.55;92.25
64858;SHT30;51335;51.148;6.950;2022-08-01T01:30:00;19.55;92.36
64858;SHT30;51335;51.148;6.950;2022-08-01T01:30:32;19.56;92.28
64858;SHT30;51335;51.148;6.950;2022-08-01T01:31:03;19.53;92.67
64858;SHT30;51335;51.148;6.950;2022-08-01T01:31:48;19.55;92.59
64858;SHT30;51335;51.148;6.950;2022-08-01T01:32:33;19.62;92.21
64858;SHT30;51335;51.148;6.950;2022-08-01T01:33:06;19.67;92.13
64858;SHT30;51335;51.148;6.950;2022-08-01T01:33:39;19.63;92.04
64858;SHT30;51335;51.148;6.950;2022-08-01T01:34:12;19.60;92.01
64858;SHT30;51335;51.148;6.950;2022-08-01T01:34:44;19.59;91.81
64858;SHT30;51335;51.148;6.950;2022-08-01T01:35:20;19.56;92.17
64858;SHT30;51335;51.148;6.950;2022-08-01T01:35:53;19.57;92.08
64858;SHT30;51335;51.148;6.950;2022-08-01T01:36:27;19.59;92.10
64858;SHT30;51335;51.148;6.950;2022-08-01T01:36:59;19.50;92.47
64858;SHT30;51335;51.148;6.950;2022-08-01T01:37:32;19.56;92.48
64858;SHT30;51335;51.148;6.950;2022-08-01T01:38:09;19.56;92.40
64858;SHT30;51335;51.148;6.950;2022-08-01T01:38:42;19.56;92.20
64858;SHT30;51335;51.148;6.950;2022-08-01T01:39:15;19.53;92.17
64858;SHT30;51335;51.148;6.950;2022-08-01T01:39:48;19.55;92.33
64858;SHT30;51335;51.148;6.950;2022-08-01T01:40:19;19.56;92.15
64858;SHT30;51335;51.148;6.950;2022-08-01T01:40:52;19.50;92.12
64858;SHT30;51335;51.148;6.950;2022-08-01T01:41:23;19.55;92.29
64858;SHT30;51335;51.148;6.950;2022-08-01T01:41:55;19.56;92.29
64858;SHT30;51335;51.148;6.950;2022-08-01T01:42:26;19.50;92.23
64858;SHT30;51335;51.148;6.950;2022-08-01T01:42:57;19.49;92.49
64858;SHT30;51335;51.148;6.950;2022-08-01T01:43:29;19.49;92.21
64858;SHT30;51335;51.148;6.950;2022-08-01T01:44:00;19.48;92.27
64858;SHT30;51335;51.148;6.950;2022-08-01T01:44:31;19.48;92.43
64858;SHT30;51335;51.148;6.950;2022-08-01T01:45:04;19.43;92.52
64858;SHT30;51335;51.148;6.950;2022-08-01T01:45:35;19.50;92.41
64858;SHT30;51335;51.148;6.950;2022-08-01T01:46:07;19.49;92.38
64858;SHT30;51335;51.148;6.950;2022-08-01T01:46:40;19.49;92.49
64858;SHT30;51335;51.148;6.950;2022-08-01T01:47:12;19.50;92.52
64858;SHT30;51335;51.148;6.950;2022-08-01T01:47:43;19.53;92.48
64858;SHT30;51335;51.148;6.950;2022-08-01T01:48:17;19.53;91.87
64858;SHT30;51335;51.148;6.950;2022-08-01T01:48:48;19.50;91.88
64858;SHT30;51335;51.148;6.950;2022-08-01T01:49:21;19.55;91.88
64858;SHT30;51335;51.148;6.950;2022-08-01T01:49:55;19.55;91.87
64858;SHT30;51335;51.148;6.950;2022-08-01T01:50:27;19.52;92.11
64858;SHT30;51335;51.148;6.950;2022-08-01T01:50:58;19.50;92.28
64858;SHT30;51335;51.148;6.950;2022-08-01T01:51:29;19.49;92.45
64858;SHT30;51335;51.148;6.950;2022-08-01T01:52:01;19.48;92.44
64858;SHT30;51335;51.148;6.950;2022-08-01T01:52:32;19.46;92.50
64858;SHT30;51335;51.148;6.950;2022-08-01T01:53:05;19.46;92.29
64858;SHT30;51335;51.148;6.950;2022-08-01T01:53:36;19.50;92.28
64858;SHT30;51335;51.148;6.950;2022-08-01T01:54:08;19.49;92.24
64858;SHT30;51335;51.148;6.950;2022-08-01T01:54:44;19.49;92.36
64858;SHT30;51335;51.148;6.950;2022-08-01T01:55:16;19.49;92.33
64858;SHT30;51335;51.148;6.950;2022-08-01T01:55:52;19.52;92.32
64858;SHT30;51335;51.148;6.950;2022-08-01T01:56:24;19.49;92.14
64858;SHT30;51335;51.148;6.950;2022-08-01T01:57:00;19.48;92.16
64858;SHT30;51335;51.148;6.950;2022-08-01T01:57:32;19.46;92.02
64858;SHT30;51335;51.148;6.950;2022-08-01T01:58:03;19.48;92.24
64858;SHT30;51335;51.148;6.950;2022-08-01T01:58:35;19.49;92.18
64858;SHT30;51335;51.148;6.950;2022-08-01T01:59:07;19.52;92.19
64858;SHT30;51335;51.148;6.950;2022-08-01T01:59:38;19.52;92.10
64858;SHT30;51335;51.148;6.950;2022-08-01T02:00:11;19.55;92.12
64858;SHT30;51335;51.148;6.950;2022-08-01T02:00:42;19.59;92.02
64858;SHT30;51335;51.148;6.950;2022-08-01T02:01:14;19.53;91.94
64858;SHT30;51335;51.148;6.950;2022-08-01T02:01:46;19.52;91.98
64858;SHT30;51335;51.148;6.950;2022-08-01T02:02:18;19.48;92.13
64858;SHT30;51335;51.148;6.950;2022-08-01T02:02:49;19.49;92.00
64858;SHT30;51335;51.148;6.950;2022-08-01T02:03:21;19.53;92.20
64858;SHT30;51335;51.148;6.950;2022-08-01T02:03:52;19.53;91.96
64858;SHT30;51335;51.148;6.950;2022-08-01T02:04:24;19.52;92.04
64858;SHT30;51335;51.148;6.950;2022-08-01T02:04:55;19.49;92.19
64858;SHT30;51335;51.148;6.950;2022-08-01T02:05:27;19.48;92.11
64858;SHT30;51335;51.148;6.950;2022-08-01T02:05:59;19.43;92.16
64858;SHT30;51335;51.148;6.950;2022-08-01T02:06:31;19.43;92.23
64858;SHT30;51335;51.148;6.950;2022-08-01T02:07:02;19.45;92.27
64858;SHT30;51335;51.148;6.950;2022-08-01T02:07:34;19.49;91.97
64858;SHT30;51335;51.148;6.950;2022-08-01T02:08:06;19.48;92.08
64858;SHT30;51335;51.148;6.950;2022-08-01T02:08:38;19.48;92.03
64858;SHT30;51335;51.148;6.950;2022-08-01T02:09:11;19.49;91.77
64858;SHT30;51335;51.148;6.950;2022-08-01T02:09:42;19.49;91.70
64858;SHT30;51335;51.148;6.950;2022-08-01T02:10:15;19.52;91.71
64858;SHT30;51335;51.148;6.950;2022-08-01T02:10:47;19.52;91.86
64858;SHT30;51335;51.148;6.950;2022-08-01T02:11:19;19.48;91.94
64858;SHT30;51335;51.148;6.950;2022-08-01T02:11:50;19.46;92.12
64858;SHT30;51335;51.148;6.950;2022-08-01T02:12:21;19.45;92.20
64858;SHT30;51335;51.148;6.950;2022-08-01T02:12:52;19.45;92.14
64858;SHT30;51335;51.148;6.950;2022-08-01T02:13:23;19.48;91.89
64858;SHT30;51335;51.148;6.950;2022-08-01T02:13:58;19.49;91.88
64858;SHT30;51335;51.148;6.950;2022-08-01T02:14:30;19.52;91.96
64858;SHT30;51335;51.148;6.950;2022-08-01T02:15:03;19.56;91.65
64858;SHT30;51335;51.148;6.950;2022-08-01T02:15:36;19.55;91.69
64858;SHT30;51335;51.148;6.950;2022-08-01T02:16:08;19.55;91.74
64858;SHT30;51335;51.148;6.950;2022-08-01T02:16:40;19.53;91.94
64858;SHT30;51335;51.148;6.950;2022-08-01T02:17:12;19.52;92.24
64858;SHT30;51335;51.148;6.950;2022-08-01T02:17:48;19.49;92.09
64858;SHT30;51335;51.148;6.950;2022-08-01T02:18:19;19.48;92.12
64858;SHT30;51335;51.148;6.950;2022-08-01T02:18:50;19.48;92.19
64858;SHT30;51335;51.148;6.950;2022-08-01T02:19:20;19.49;92.07
64858;SHT30;51335;51.148;6.950;2022-08-01T02:19:51;19.49;92.10
64858;SHT30;51335;51.148;6.950;2022-08-01T02:20:24;19.50;92.18
64858;SHT30;51335;51.148;6.950;2022-08-01T02:20:55;19.55;91.99
64858;SHT30;51335;51.148;6.950;2022-08-01T02:21:30;19.55;91.83
64858;SHT30;51335;51.148;6.950;2022-08-01T02:22:26;19.50;91.81
64858;SHT30;51335;51.148;6.950;2022-08-01T02:23:07;19.49;91.78
64858;SHT30;51335;51.148;6.950;2022-08-01T02:23:38;19.53;91.66
64858;SHT30;51335;51.148;6.950;2022-08-01T02:24:17;19.50;91.95
64858;SHT30;51335;51.148;6.950;2022-08-01T02:24:58;19.48;92.18
64858;SHT30;51335;51.148;6.950;2022-08-01T02:25:42;19.45;92.34
64858;SHT30;51335;51.148;6.950;2022-08-01T02:26:15;19.50;92.22
64858;SHT30;51335;51.148;6.950;2022-08-01T02:26:50;19.49;91.88
64858;SHT30;51335;51.148;6.950;2022-08-01T02:27:29;19.48;91.86
64858;SHT30;51335;51.148;6.950;2022-08-01T02:28:43;19.48;91.74
64858;SHT30;51335;51.148;6.950;2022-08-01T02:29:18;19.50;91.81
64858;SHT30;51335;51.148;6.950;2022-08-01T02:30:00;19.49;92.02
64858;SHT30;51335;51.148;6.950;2022-08-01T02:30:35;19.50;91.95
64858;SHT30;51335;51.148;6.950;2022-08-01T02:31:08;19.50;91.83
64858;SHT30;51335;51.148;6.950;2022-08-01T02:31:44;19.49;91.92
64858;SHT30;51335;51.148;6.950;2022-08-01T02:32:41;19.50;91.89
64858;SHT30;51335;51.148;6.950;2022-08-01T02:33:17;19.55;91.79
64858;SHT30;51335;51.148;6.950;2022-08-01T02:33:55;19.56;91.53
64858;SHT30;51335;51.148;6.950;2022-08-01T02:34:28;19.53;91.57
64858;SHT30;51335;51.148;6.950;2022-08-01T02:35:01;19.52;91.62
64858;SHT30;51335;51.148;6.950;2022-08-01T02:35:34;19.52;91.64
64858;SHT30;51335;51.148;6.950;2022-08-01T02:36:06;19.50;91.62
64858;SHT30;51335;51.148;6.950;2022-08-01T02:36:38;19.53;91.64
64858;SHT30;51335;51.148;6.950;2022-08-01T02:37:09;19.53;91.74
64858;SHT30;51335;51.148;6.950;2022-08-01T02:37:41;19.55;91.69
64858;SHT30;51335;51.148;6.950;2022-08-01T02:38:13;19.48;91.83
64858;SHT30;51335;51.148;6.950;2022-08-01T02:38:45;19.50;91.89
64858;SHT30;51335;51.148;6.950;2022-08-01T02:39:17;19.49;91.91
64858;SHT30;51335;51.148;6.950;2022-08-01T02:39:50;19.45;92.07
64858;SHT30;51335;51.148;6.950;2022-08-01T02:40:22;19.49;91.96
64858;SHT30;51335;51.148;6.950;2022-08-01T02:40:55;19.49;91.80
64858;SHT30;51335;51.148;6.950;2022-08-01T02:41:28;19.49;91.81
64858;SHT30;51335;51.148;6.950;2022-08-01T02:42:03;19.48;91.85
64858;SHT30;51335;51.148;6.950;2022-08-01T02:42:37;19.50;91.92
64858;SHT30;51335;51.148;6.950;2022-08-01T02:43:09;19.52;91.45
64858;SHT30;51335;51.148;6.950;2022-08-01T02:43:43;19.46;91.89
64858;SHT30;51335;51.148;6.950;2022-08-01T02:44:23;19.50;91.68
64858;SHT30;51335;51.148;6.950;2022-08-01T02:44:54;19.46;91.85
64858;SHT30;51335;51.148;6.950;2022-08-01T02:45:26;19.50;91.70
64858;SHT30;51335;51.148;6.950;2022-08-01T02:46:00;19.46;91.74
64858;SHT30;51335;51.148;6.950;2022-08-01T02:46:39;19.43;91.69
64858;SHT30;51335;51.148;6.950;2022-08-01T02:47:11;19.46;91.79
64858;SHT30;51335;51.148;6.950;2022-08-01T02:47:42;19.49;91.61
64858;SHT30;51335;51.148;6.950;2022-08-01T02:48:15;19.46;91.76
64858;SHT30;51335;51.148;6.950;2022-08-01T02:48:47;19.46;91.84
64858;SHT30;51335;51.148;6.950;2022-08-01T02:49:20;19.46;91.87
64858;SHT30;51335;51.148;6.950;2022-08-01T02:49:52;19.49;91.87
64858;SHT30;51335;51.148;6.950;2022-08-01T02:50:23;19.45;91.80
64858;SHT30;51335;51.148;6.950;2022-08-01T02:51:01;19.45;91.92
64858;SHT30;51335;51.148;6.950;2022-08-01T02:51:32;19.45;92.13
64858;SHT30;51335;51.148;6.950;2022-08-01T02:52:07;19.45;92.08
64858;SHT30;51335;51.148;6.950;2022-08-01T02:52:40;19.46;92.11
64858;SHT30;51335;51.148;6.950;2022-08-01T02:53:12;19.48;91.95
64858;SHT30;51335;51.148;6.950;2022-08-01T02:53:43;19.48;91.84
64858;SHT30;51335;51.148;6.950;2022-08-01T02:54:16;19.45;91.97
64858;SHT30;51335;51.148;6.950;2022-08-01T02:54:50;19.45;91.72
64858;SHT30;51335;51.148;6.950;2022-08-01T02:55:21;19.40;92.00
64858;SHT30;51335;51.148;6.950;2022-08-01T02:55:52;19.43;92.10
64858;SHT30;51335;51.148;6.950;2022-08-01T02:56:24;19.42;92.05
64858;SHT30;51335;51.148;6.950;2022-08-01T02:56:56;19.39;92.11
64858;SHT30;51335;51.148;6.950;2022-08-01T02:57:27;19.43;92.20
64858;SHT30;51335;51.148;6.950;2022-08-01T02:57:59;19.42;92.04
64858;SHT30;51335;51.148;6.950;2022-08-01T02:58:30;19.40;92.11
64858;SHT30;51335;51.148;6.950;2022-08-01T02:59:04;19.42;92.21
64858;SHT30;51335;51.148;6.950;2022-08-01T02:59:37;19.40;92.19
64858;SHT30;51335;51.148;6.950;2022-08-01T03:00:08;19.43;92.19
64858;SHT30;51335;51.148;6.950;2022-08-01T03:00:40;19.43;92.16
64858;SHT30;51335;51.148;6.950;2022-08-01T03:01:13;19.39;92.08
64858;SHT30;51335;51.148;6.950;2022-08-01T03:01:45;19.42;91.91
64858;SHT30;51335;51.148;6.950;2022-08-01T03:02:17;19.46;91.96
64858;SHT30;51335;51.148;6.950;2022-08-01T03:02:49;19.43;91.91
64858;SHT30;51335;51.148;6.950;2022-08-01T03:03:21;19.45;92.24
64858;SHT30;51335;51.148;6.950;2022-08-01T03:03:51;19.45;92.24
64858;SHT30;51335;51.148;6.950;2022-08-01T03:04:23;19.46;92.10
64858;SHT30;51335;51.148;6.950;2022-08-01T03:04:54;19.49;91.79
64858;SHT30;51335;51.148;6.950;2022-08-01T03:05:26;19.52;91.72
64858;SHT30;51335;51.148;6.950;2022-08-01T03:05:57;19.49;91.82
64858;SHT30;51335;51.148;6.950;2022-08-01T03:06:29;19.46;92.00
64858;SHT30;51335;51.148;6.950;2022-08-01T03:07:02;19.49;91.95
64858;SHT30;51335;51.148;6.950;2022-08-01T03:07:33;19.46;91.87
64858;SHT30;51335;51.148;6.950;2022-08-01T03:08:04;19.43;92.06
64858;SHT30;51335;51.148;6.950;2022-08-01T03:08:36;19.42;92.11
64858;SHT30;51335;51.148;6.950;2022-08-01T03:09:08;19.40;92.01
64858;SHT30;51335;51.148;6.950;2022-08-01T03:09:40;19.42;92.09
64858;SHT30;51335;51.148;6.950;2022-08-01T03:10:13;19.45;91.94
64858;SHT30;51335;51.148;6.950;2022-08-01T03:10:45;19.45;91.97
64858;SHT30;51335;51.148;6.950;2022-08-01T03:11:16;19.42;92.02
64858;SHT30;51335;51.148;6.950;2022-08-01T03:11:48;19.36;92.16
64858;SHT30;51335;51.148;6.950;2022-08-01T03:12:22;19.42;92.15
64858;SHT30;51335;51.148;6.950;2022-08-01T03:12:54;19.48;91.89
64858;SHT30;51335;51.148;6.950;2022-08-01T03:13:27;19.50;91.79
64858;SHT30;51335;51.148;6.950;2022-08-01T03:14:01;19.48;91.83
64858;SHT30;51335;51.148;6.950;2022-08-01T03:14:35;19.48;91.94
64858;SHT30;51335;51.148;6.950;2022-08-01T03:15:07;19.48;91.98
64858;SHT30;51335;51.148;6.950;2022-08-01T03:15:39;19.43;91.99
64858;SHT30;51335;51.148;6.950;2022-08-01T03:16:10;19.42;91.95
64858;SHT30;51335;51.148;6.950;2022-08-01T03:16:43;19.39;92.21
64858;SHT30;51335;51.148;6.950;2022-08-01T03:17:15;19.40;92.29
64858;SHT30;51335;51.148;6.950;2022-08-01T03:17:47;19.43;92.12
64858;SHT30;51335;51.148;6.950;2022-08-01T03:18:20;19.48;92.09
64858;SHT30;51335;51.148;6.950;2022-08-01T03:18:55;19.46;91.89
64858;SHT30;51335;51.148;6.950;2022-08-01T03:19:27;19.49;91.90
64858;SHT30;51335;51.148;6.950;2022-08-01T03:19:58;19.48;91.93
64858;SHT30;51335;51.148;6.950;2022-08-01T03:20:33;19.43;92.01
64858;SHT30;51335;51.148;6.950;2022-08-01T03:21:03;19.45;91.78
64858;SHT30;51335;51.148;6.950;2022-08-01T03:21:35;19.43;91.92
64858;SHT30;51335;51.148;6.950;2022-08-01T03:22:08;19.40;92.01
64858;SHT30;51335;51.148;6.950;2022-08-01T03:22:40;19.39;92.08
64858;SHT30;51335;51.148;6.950;2022-08-01T03:23:12;19.38;92.30
64858;SHT30;51335;51.148;6.950;2022-08-01T03:23:44;19.38;92.32
64858;SHT30;51335;51.148;6.950;2022-08-01T03:24:16;19.40;92.28
64858;SHT30;51335;51.148;6.950;2022-08-01T03:24:51;19.45;92.01
64858;SHT30;51335;51.148;6.950;2022-08-01T03:25:22;19.45;91.98
64858;SHT30;51335;51.148;6.950;2022-08-01T03:25:54;19.43;91.93
64858;SHT30;51335;51.148;6.950;2022-08-01T03:26:27;19.42;91.97
64858;SHT30;51335;51.148;6.950;2022-08-01T03:26:58;19.43;92.06
64858;SHT30;51335;51.148;6.950;2022-08-01T03:27:29;19.40;92.18
64858;SHT30;51335;51.148;6.950;2022-08-01T03:28:03;19.40;92.29
64858;SHT30;51335;51.148;6.950;2022-08-01T03:28:35;19.43;92.18
64858;SHT30;51335;51.148;6.950;2022-08-01T03:29:10;19.42;92.20
64858;SHT30;51335;51.148;6.950;2022-08-01T03:29:42;19.39;92.32
64858;SHT30;51335;51.148;6.950;2022-08-01T03:30:13;19.40;92.21
64858;SHT30;51335;51.148;6.950;2022-08-01T03:30:44;19.43;92.15
64858;SHT30;51335;51.148;6.950;2022-08-01T03:31:16;19.40;92.14
64858;SHT30;51335;51.148;6.950;2022-08-01T03:31:48;19.40;92.18
64858;SHT30;51335;51.148;6.950;2022-08-01T03:32:20;19.40;92.28
64858;SHT30;51335;51.148;6.950;2022-08-01T03:32:51;19.43;92.38
64858;SHT30;51335;51.148;6.950;2022-08-01T03:33:22;19.39;92.37
64858;SHT30;51335;51.148;6.950;2022-08-01T03:33:52;19.38;92.31
64858;SHT30;51335;51.148;6.950;2022-08-01T03:34:23;19.39;92.35